Time;durP1;ratioP1;P1;durP2;ratioP2;P2;SDS_P1;SDS_P2;PMS_P1;PMS_P2;Temp;Humidity;BMP_temperature;BMP_pressure;BME280_temperature;BME280_humidity;BME280_pressure;Samples;Min_cycle;Max_cycle;Signal;HPM_P1;HPM_P2
2023/06/10 00:02:08;;;;;;;10.45;4.40;;;;;;;;;;5093874;28;20129;-63
2023/06/10 00:04:33;;;;;;;9.57;4.65;;;;;;;;;;5093864;28;20105;-63
2023/06/10 00:06:58;;;;;;;12.00;4.45;;;;;;;;;;5094354;28;20016;-63
2023/06/10 00:09:24;;;;;;;12.05;4.60;;;;;;;;;;5093828;28;20024;-62
2023/06/10 00:11:49;;;;;;;12.70;4.68;;;;;;;;;;5094207;28;20412;-62
2023/06/10 00:14:15;;;;;;;9.73;4.60;;;;;;;;;;5086659;28;20024;-63
2023/06/10 00:16:40;;;;;;;9.68;4.18;;;;;;;;;;5088211;28;20372;-63
2023/06/10 00:19:06;;;;;;;12.00;4.60;;;;;;;;;;5092260;28;20032;-62
2023/06/10 00:21:37;;;;;;;10.75;4.15;;;;;;;;;;5090892;28;20028;-62
2023/06/10 00:24:13;;;;;;;8.95;3.92;;;;;;;;;;5110109;28;20099;-63
2023/06/10 00:26:39;;;;;;;11.50;4.25;;;;;;;;;;5092237;28;20024;-62
2023/06/10 00:29:05;;;;;;;10.25;4.38;;;;;;;;;;5092963;28;20016;-62
2023/06/10 00:31:30;;;;;;;9.65;4.40;;;;;;;;;;5093499;28;20027;-63
2023/06/10 00:33:56;;;;;;;11.73;4.57;;;;;;;;;;5093856;28;20089;-62
2023/06/10 00:36:21;;;;;;;10.77;4.43;;;;;;;;;;5091566;28;20035;-63
2023/06/10 00:38:46;;;;;;;10.33;4.20;;;;;;;;;;5093193;28;20028;-62
2023/06/10 00:41:11;;;;;;;7.80;4.10;;;;;;;;;;5093025;28;20035;-62
2023/06/10 00:43:37;;;;;;;13.43;4.57;;;;;;;;;;5093371;28;20378;-62
2023/06/10 00:46:02;;;;;;;10.15;4.40;;;;;;;;;;5093669;28;20065;-62
2023/06/10 00:48:28;;;;;;;10.35;4.55;;;;;;;;;;5092611;28;20377;-62
2023/06/10 00:50:53;;;;;;;11.13;4.53;;;;;;;;;;5093593;28;20025;-62
2023/06/10 00:53:19;;;;;;;9.10;4.50;;;;;;;;;;5075043;28;20350;-62
2023/06/10 00:55:44;;;;;;;9.93;4.47;;;;;;;;;;5092458;28;20024;-62
2023/06/10 00:58:10;;;;;;;10.38;4.45;;;;;;;;;;5107003;28;20036;-63
2023/06/10 01:03:39;;;;;;;13.40;4.33;;;;;;;;;;5098330;28;20039;-62
2023/06/10 01:06:24;;;;;;;13.40;4.63;;;;;;;;;;5104444;28;20440;-63
2023/06/10 01:08:55;;;;;;;11.32;4.25;;;;;;;;;;5087509;28;20059;-63
2023/06/10 01:11:23;;;;;;;10.18;4.45;;;;;;;;;;5093079;28;20027;-63
2023/06/10 01:13:51;;;;;;;11.20;4.37;;;;;;;;;;5095220;28;20435;-62
2023/06/10 01:16:17;;;;;;;13.67;4.90;;;;;;;;;;5093276;28;20095;-62
2023/06/10 01:18:43;;;;;;;9.80;4.47;;;;;;;;;;5093171;28;20445;-62
2023/06/10 01:21:09;;;;;;;11.43;4.40;;;;;;;;;;5092189;28;20107;-62
2023/06/10 01:23:34;;;;;;;14.03;4.80;;;;;;;;;;5092959;28;20016;-62
2023/06/10 01:26:02;;;;;;;12.10;4.53;;;;;;;;;;5092255;28;20024;-62
2023/06/10 01:28:41;;;;;;;10.43;4.50;;;;;;;;;;5089082;28;20533;-62
2023/06/10 01:31:13;;;;;;;13.50;4.73;;;;;;;;;;5078387;28;20028;-62
2023/06/10 01:33:43;;;;;;;12.30;5.00;;;;;;;;;;5090302;28;20020;-62
2023/06/10 01:36:08;;;;;;;12.50;4.47;;;;;;;;;;5107174;28;20030;-62
2023/06/10 01:38:38;;;;;;;11.13;4.70;;;;;;;;;;5105324;28;20028;-61
2023/06/10 01:41:04;;;;;;;8.63;4.50;;;;;;;;;;5091963;28;20047;-62
2023/06/10 01:43:32;;;;;;;12.67;4.80;;;;;;;;;;5092573;28;20043;-62
2023/06/10 01:45:57;;;;;;;10.77;4.50;;;;;;;;;;5094728;28;20385;-63
2023/06/10 01:48:22;;;;;;;11.60;5.03;;;;;;;;;;5091720;28;20024;-62
2023/06/10 01:50:48;;;;;;;11.30;4.80;;;;;;;;;;5092116;28;20031;-62
2023/06/10 01:53:13;;;;;;;12.87;4.53;;;;;;;;;;5092078;28;20024;-62
2023/06/10 01:55:38;;;;;;;14.40;4.63;;;;;;;;;;5092024;28;20027;-62
2023/06/10 01:58:03;;;;;;;11.20;4.47;;;;;;;;;;5091041;28;20015;-63
2023/06/10 02:00:29;;;;;;;12.70;4.97;;;;;;;;;;5092446;28;20051;-62
2023/06/10 02:02:54;;;;;;;9.37;5.13;;;;;;;;;;5091730;28;20032;-62
2023/06/10 02:05:19;;;;;;;12.97;4.70;;;;;;;;;;5092369;28;20526;-62
2023/06/10 02:07:45;;;;;;;11.07;4.67;;;;;;;;;;5093724;28;20077;-62
2023/06/10 02:10:10;;;;;;;9.77;4.33;;;;;;;;;;5094255;28;20044;-62
2023/06/10 02:12:36;;;;;;;10.53;5.20;;;;;;;;;;5095051;28;20523;-63
2023/06/10 02:15:01;;;;;;;11.50;4.70;;;;;;;;;;5095378;28;20108;-62
2023/06/10 02:17:26;;;;;;;10.10;4.60;;;;;;;;;;5095525;28;20103;-62
2023/06/10 02:19:54;;;;;;;10.40;4.83;;;;;;;;;;5094348;28;20354;-62
2023/06/10 02:22:20;;;;;;;12.40;5.10;;;;;;;;;;5093063;28;20024;-62
2023/06/10 02:24:46;;;;;;;13.17;5.70;;;;;;;;;;5099221;28;20540;-62
2023/06/10 02:27:11;;;;;;;12.07;5.37;;;;;;;;;;5098481;28;20024;-62
2023/06/10 02:29:36;;;;;;;13.10;5.73;;;;;;;;;;5096000;28;20020;-62
2023/06/10 02:32:02;;;;;;;13.87;5.20;;;;;;;;;;5095449;28;20035;-62
2023/06/10 02:34:27;;;;;;;15.00;5.90;;;;;;;;;;5095961;28;20054;-62
2023/06/10 02:36:52;;;;;;;12.70;5.70;;;;;;;;;;5094959;28;20027;-63
2023/06/10 02:39:18;;;;;;;15.70;5.63;;;;;;;;;;5095731;28;20473;-62
2023/06/10 02:41:43;;;;;;;10.17;5.53;;;;;;;;;;5095064;28;20380;-63
2023/06/10 02:44:08;;;;;;;12.93;6.03;;;;;;;;;;5095408;28;20012;-62
2023/06/10 02:46:33;;;;;;;12.37;5.60;;;;;;;;;;5095348;28;20023;-63
2023/06/10 02:48:59;;;;;;;11.80;5.17;;;;;;;;;;5095736;28;20355;-62
2023/06/10 02:51:24;;;;;;;14.23;5.60;;;;;;;;;;5095646;28;20462;-63
2023/06/10 02:53:50;;;;;;;13.43;5.37;;;;;;;;;;5095698;28;20035;-62
2023/06/10 02:56:18;;;;;;;12.97;5.23;;;;;;;;;;5102656;28;20012;-62
2023/06/10 02:58:44;;;;;;;13.97;5.53;;;;;;;;;;5097120;28;20481;-62
2023/06/10 03:01:10;;;;;;;12.70;5.40;;;;;;;;;;5095439;28;20095;-62
2023/06/10 03:03:36;;;;;;;13.67;5.70;;;;;;;;;;5095038;28;20051;-62
2023/06/10 03:06:02;;;;;;;14.23;5.20;;;;;;;;;;5095461;28;20012;-63
2023/06/10 03:08:27;;;;;;;14.00;5.53;;;;;;;;;;5094296;28;20385;-62
2023/06/10 03:10:53;;;;;;;9.90;5.03;;;;;;;;;;5095372;28;20058;-62
2023/06/10 03:13:18;;;;;;;13.43;5.90;;;;;;;;;;5094423;28;20093;-62
2023/06/10 03:15:44;;;;;;;12.00;5.60;;;;;;;;;;5095311;28;20024;-62
2023/06/10 03:18:09;;;;;;;16.17;6.00;;;;;;;;;;5095161;28;20069;-62
2023/06/10 03:20:39;;;;;;;13.57;5.80;;;;;;;;;;5087429;28;20013;-62
2023/06/10 03:23:07;;;;;;;14.03;6.00;;;;;;;;;;5082854;28;20031;-62
2023/06/10 03:25:32;;;;;;;12.67;5.60;;;;;;;;;;5094689;28;20065;-62
2023/06/10 03:27:58;;;;;;;19.60;6.20;;;;;;;;;;5094455;28;20020;-62
2023/06/10 03:30:23;;;;;;;14.23;6.07;;;;;;;;;;5095033;28;20432;-62
2023/06/10 03:32:49;;;;;;;15.33;6.03;;;;;;;;;;5094582;28;20024;-62
2023/06/10 03:35:14;;;;;;;15.73;5.93;;;;;;;;;;5094836;28;20016;-63
2023/06/10 03:37:39;;;;;;;16.07;6.30;;;;;;;;;;5097296;28;20024;-63
2023/06/10 03:40:05;;;;;;;14.37;6.27;;;;;;;;;;5087687;28;20089;-63
2023/06/10 03:42:31;;;;;;;13.07;6.40;;;;;;;;;;5095407;28;20114;-62
2023/06/10 03:44:56;;;;;;;14.37;5.63;;;;;;;;;;5115008;28;20027;-62
2023/06/10 03:47:21;;;;;;;16.10;6.03;;;;;;;;;;5108830;28;20016;-62
2023/06/10 03:49:47;;;;;;;10.53;5.50;;;;;;;;;;5093325;28;20016;-62
2023/06/10 03:52:12;;;;;;;10.93;5.33;;;;;;;;;;5094544;28;20020;-62
2023/06/10 03:54:37;;;;;;;10.87;5.10;;;;;;;;;;5094464;28;20027;-62
2023/06/10 03:57:03;;;;;;;13.27;5.23;;;;;;;;;;5093102;28;20027;-64
2023/06/10 03:59:28;;;;;;;13.40;5.50;;;;;;;;;;5094260;28;20023;-63
2023/06/10 04:01:54;;;;;;;11.63;5.33;;;;;;;;;;5093834;28;20530;-63
2023/06/10 04:04:19;;;;;;;16.10;5.37;;;;;;;;;;5094325;28;20020;-62
2023/06/10 04:06:44;;;;;;;12.73;5.10;;;;;;;;;;5094354;28;20474;-62
2023/06/10 04:09:10;;;;;;;12.07;4.60;;;;;;;;;;5093515;28;20060;-62
2023/06/10 04:11:35;;;;;;;10.03;4.33;;;;;;;;;;5089280;28;20031;-63
2023/06/10 04:14:01;;;;;;;10.55;4.45;;;;;;;;;;5093158;28;20466;-62
2023/06/10 04:16:26;;;;;;;8.87;4.37;;;;;;;;;;5093726;28;20051;-63
2023/06/10 04:18:51;;;;;;;9.13;4.00;;;;;;;;;;5096178;28;20047;-62
2023/06/10 04:21:16;;;;;;;12.77;4.10;;;;;;;;;;5093906;28;20398;-63
2023/06/10 04:23:42;;;;;;;11.55;4.20;;;;;;;;;;5089533;28;20028;-62
2023/06/10 04:26:07;;;;;;;9.77;3.70;;;;;;;;;;5089153;28;20502;-63
2023/06/10 04:28:32;;;;;;;9.65;4.38;;;;;;;;;;5075300;28;20023;-62
2023/06/10 04:30:58;;;;;;;13.27;4.50;;;;;;;;;;5093674;28;20012;-63
2023/06/10 04:33:24;;;;;;;12.13;4.07;;;;;;;;;;5093318;28;20016;-62
2023/06/10 04:35:50;;;;;;;7.50;3.78;;;;;;;;;;5092977;28;20040;-62
2023/06/10 04:38:15;;;;;;;8.35;3.97;;;;;;;;;;5092905;28;20099;-62
2023/06/10 04:40:40;;;;;;;7.63;3.30;;;;;;;;;;5093387;28;20028;-62
2023/06/10 04:43:05;;;;;;;10.27;3.75;;;;;;;;;;5093025;28;20036;-62
2023/06/10 04:45:31;;;;;;;8.15;3.83;;;;;;;;;;5075134;28;20477;-62
2023/06/10 04:47:57;;;;;;;9.80;4.15;;;;;;;;;;5098655;28;20054;-63
2023/06/10 04:50:23;;;;;;;8.02;3.55;;;;;;;;;;5104440;28;20487;-61
2023/06/10 04:52:49;;;;;;;12.65;4.10;;;;;;;;;;5092723;28;20028;-62
2023/06/10 04:55:14;;;;;;;8.15;3.80;;;;;;;;;;5092792;28;20028;-62
2023/06/10 04:57:39;;;;;;;6.07;2.92;;;;;;;;;;5092251;28;20032;-62
2023/06/10 05:00:06;;;;;;;8.68;4.15;;;;;;;;;;5093091;28;20082;-61
2023/06/10 05:02:31;;;;;;;7.70;3.75;;;;;;;;;;5092001;28;20044;-61
2023/06/10 05:04:57;;;;;;;8.23;3.70;;;;;;;;;;5093050;28;20051;-62
2023/06/10 05:07:23;;;;;;;10.68;4.00;;;;;;;;;;5093077;28;20024;-61
2023/06/10 05:09:48;;;;;;;13.05;4.25;;;;;;;;;;5093006;28;20019;-61
2023/06/10 05:12:13;;;;;;;9.00;3.72;;;;;;;;;;5078447;28;20025;-61
2023/06/10 05:14:38;;;;;;;10.23;3.97;;;;;;;;;;5092265;28;20024;-61
2023/06/10 05:17:05;;;;;;;7.65;3.78;;;;;;;;;;5093091;28;20168;-61
2023/06/10 05:19:31;;;;;;;7.82;4.10;;;;;;;;;;5093411;28;20443;-62
2023/06/10 05:21:56;;;;;;;7.88;4.15;;;;;;;;;;5093063;28;20028;-61
2023/06/10 05:24:23;;;;;;;8.30;3.53;;;;;;;;;;5092683;28;20024;-62
2023/06/10 05:26:48;;;;;;;8.80;4.15;;;;;;;;;;5092463;28;20051;-61
2023/06/10 05:29:15;;;;;;;10.45;4.45;;;;;;;;;;5092424;28;20024;-61
2023/06/10 05:31:40;;;;;;;11.25;4.60;;;;;;;;;;5093013;28;20028;-61
2023/06/10 05:34:05;;;;;;;9.68;4.30;;;;;;;;;;5090956;28;20500;-61
2023/06/10 05:36:31;;;;;;;9.20;4.07;;;;;;;;;;5088306;28;20024;-62
2023/06/10 05:38:56;;;;;;;9.55;3.90;;;;;;;;;;5095162;28;20031;-61
2023/06/10 05:41:22;;;;;;;10.30;4.38;;;;;;;;;;5093302;28;20030;-62
2023/06/10 05:43:47;;;;;;;8.52;3.65;;;;;;;;;;5106098;28;20016;-62
2023/06/10 05:46:12;;;;;;;8.63;3.92;;;;;;;;;;5097105;28;20028;-61
2023/06/10 05:48:38;;;;;;;9.63;4.00;;;;;;;;;;5096154;28;20028;-62
2023/06/10 05:51:03;;;;;;;12.18;3.97;;;;;;;;;;5097226;28;20020;-61
2023/06/10 05:53:28;;;;;;;7.57;4.22;;;;;;;;;;5097616;28;20139;-61
2023/06/10 05:55:57;;;;;;;10.48;4.05;;;;;;;;;;5108091;28;20098;-61
2023/06/10 05:58:22;;;;;;;8.63;4.18;;;;;;;;;;5107602;28;20032;-61
2023/06/10 06:00:47;;;;;;;8.00;4.07;;;;;;;;;;5100484;28;20043;-61
2023/06/10 06:03:13;;;;;;;9.13;3.85;;;;;;;;;;5096938;28;20048;-62
2023/06/10 06:05:38;;;;;;;11.00;4.50;;;;;;;;;;5098124;28;20039;-61
2023/06/10 06:08:18;;;;;;;12.43;4.88;;;;;;;;;;5096486;28;20465;-61
2023/06/10 06:10:44;;;;;;;9.15;4.20;;;;;;;;;;5097468;28;20039;-61
2023/06/10 06:13:09;;;;;;;10.00;4.13;;;;;;;;;;5102205;28;20017;-61
2023/06/10 06:15:34;;;;;;;9.35;4.13;;;;;;;;;;5095245;28;20020;-62
2023/06/10 06:18:00;;;;;;;7.82;3.92;;;;;;;;;;5093240;28;20458;-61
2023/06/10 06:20:25;;;;;;;9.95;4.30;;;;;;;;;;5095361;28;20027;-62
2023/06/10 06:22:50;;;;;;;8.38;3.80;;;;;;;;;;5096356;28;20089;-61
2023/06/10 06:25:15;;;;;;;8.13;4.05;;;;;;;;;;5094392;28;20046;-60
2023/06/10 06:27:41;;;;;;;8.43;4.03;;;;;;;;;;5092709;28;20103;-61
2023/06/10 06:30:07;;;;;;;9.02;3.92;;;;;;;;;;5093191;28;20059;-62
2023/06/10 06:32:32;;;;;;;10.10;5.13;;;;;;;;;;5095745;28;20028;-60
2023/06/10 06:34:57;;;;;;;8.80;4.63;;;;;;;;;;5095862;28;20432;-61
2023/06/10 06:37:26;;;;;;;6.68;3.55;;;;;;;;;;5095095;28;20035;-61
2023/06/10 06:39:51;;;;;;;8.93;4.25;;;;;;;;;;5095449;28;20024;-60
2023/06/10 06:42:17;;;;;;;10.05;4.90;;;;;;;;;;5097314;28;20127;-61
2023/06/10 06:44:42;;;;;;;12.13;5.18;;;;;;;;;;5096526;28;20047;-61
2023/06/10 06:47:07;;;;;;;9.82;5.22;;;;;;;;;;5095886;28;20024;-61
2023/06/10 06:49:33;;;;;;;12.05;5.40;;;;;;;;;;5093335;28;20024;-60
2023/06/10 06:51:58;;;;;;;9.80;5.05;;;;;;;;;;5096145;28;20100;-61
2023/06/10 06:54:23;;;;;;;8.88;4.18;;;;;;;;;;5094851;28;20028;-60
2023/06/10 06:56:49;;;;;;;7.97;4.07;;;;;;;;;;5095258;28;20102;-60
2023/06/10 06:59:14;;;;;;;11.45;5.43;;;;;;;;;;5097886;28;20030;-61
2023/06/10 07:01:40;;;;;;;12.02;5.50;;;;;;;;;;5092156;28;20507;-61
2023/06/10 07:04:05;;;;;;;9.73;4.93;;;;;;;;;;5093676;28;20048;-60
2023/06/10 07:06:30;;;;;;;8.23;4.30;;;;;;;;;;5094455;28;20031;-61
2023/06/10 07:08:56;;;;;;;8.65;4.88;;;;;;;;;;5094490;28;20032;-61
2023/06/10 07:11:21;;;;;;;11.60;4.70;;;;;;;;;;5095160;28;20056;-60
2023/06/10 07:13:47;;;;;;;11.45;4.97;;;;;;;;;;5093960;28;20043;-60
2023/06/10 07:16:12;;;;;;;13.05;5.07;;;;;;;;;;5095632;28;20031;-61
2023/06/10 07:18:37;;;;;;;8.55;4.60;;;;;;;;;;5091653;28;20023;-60
2023/06/10 07:21:03;;;;;;;8.10;5.22;;;;;;;;;;5095135;28;20049;-60
2023/06/10 07:23:28;;;;;;;10.70;5.03;;;;;;;;;;5089084;28;20031;-61
2023/06/10 07:25:53;;;;;;;10.48;5.35;;;;;;;;;;5095965;28;20031;-60
2023/06/10 07:28:18;;;;;;;9.90;5.30;;;;;;;;;;5095159;28;20050;-60
2023/06/10 07:30:44;;;;;;;10.52;4.65;;;;;;;;;;5095901;28;20149;-60
2023/06/10 07:33:10;;;;;;;9.15;4.80;;;;;;;;;;5089236;28;20020;-60
2023/06/10 07:35:36;;;;;;;8.57;4.57;;;;;;;;;;5088764;28;20253;-61
2023/06/10 07:38:01;;;;;;;9.23;5.10;;;;;;;;;;5093114;28;20020;-60
2023/06/10 07:40:26;;;;;;;9.15;4.90;;;;;;;;;;5094415;28;20024;-60
2023/06/10 07:42:52;;;;;;;11.02;4.60;;;;;;;;;;5094062;28;20031;-60
2023/06/10 07:45:18;;;;;;;9.07;4.90;;;;;;;;;;5097406;28;20019;-60
2023/06/10 07:47:43;;;;;;;8.20;4.53;;;;;;;;;;5094171;28;20026;-60
2023/06/10 07:50:09;;;;;;;7.45;4.57;;;;;;;;;;5094564;28;20419;-61
2023/06/10 07:52:34;;;;;;;8.75;4.97;;;;;;;;;;5094545;28;20032;-60
2023/06/10 07:55:00;;;;;;;7.88;4.30;;;;;;;;;;5093988;28;20024;-61
2023/06/10 07:57:25;;;;;;;9.15;4.63;;;;;;;;;;5094194;28;20473;-60
2023/06/10 07:59:50;;;;;;;9.32;4.45;;;;;;;;;;5093298;28;20024;-61
2023/06/10 08:02:16;;;;;;;10.05;4.75;;;;;;;;;;5090574;28;20032;-61
2023/06/10 08:04:41;;;;;;;10.10;4.22;;;;;;;;;;5093403;28;20039;-61
2023/06/10 08:07:06;;;;;;;9.02;3.95;;;;;;;;;;5093158;28;20019;-61
2023/06/10 08:09:32;;;;;;;8.25;4.07;;;;;;;;;;5098106;28;20020;-61
2023/06/10 08:11:57;;;;;;;10.02;5.10;;;;;;;;;;5093505;28;20023;-61
2023/06/10 08:14:22;;;;;;;7.65;3.92;;;;;;;;;;5090951;28;20449;-61
2023/06/10 08:16:47;;;;;;;6.35;3.92;;;;;;;;;;5093325;28;20020;-61
2023/06/10 08:19:13;;;;;;;10.30;4.07;;;;;;;;;;5090378;28;20024;-62
2023/06/10 08:21:39;;;;;;;6.53;3.78;;;;;;;;;;5093665;28;20024;-61
2023/06/10 08:24:05;;;;;;;7.32;3.83;;;;;;;;;;5095161;28;20020;-63
2023/06/10 08:26:30;;;;;;;7.93;3.75;;;;;;;;;;5093414;28;20022;-61
2023/06/10 08:28:55;;;;;;;8.70;5.10;;;;;;;;;;5093686;28;20107;-61
2023/06/10 08:31:21;;;;;;;7.95;3.95;;;;;;;;;;5092203;28;20024;-62
2023/06/10 08:33:46;;;;;;;6.80;3.60;;;;;;;;;;5092529;28;20445;-62
2023/06/10 08:36:11;;;;;;;9.77;3.65;;;;;;;;;;5090736;28;20095;-62
2023/06/10 08:38:37;;;;;;;8.40;3.67;;;;;;;;;;5094014;28;20032;-62
2023/06/10 08:41:04;;;;;;;9.85;3.30;;;;;;;;;;5094031;28;20020;-61
2023/06/10 08:43:47;;;;;;;7.00;3.50;;;;;;;;;;5093546;28;20035;-61
2023/06/10 08:46:13;;;;;;;11.45;3.25;;;;;;;;;;5089480;28;20016;-61
2023/06/10 08:48:41;;;;;;;7.13;3.28;;;;;;;;;;5100756;28;20411;-61
2023/06/10 08:51:09;;;;;;;9.40;3.28;;;;;;;;;;5086794;28;20058;-62
2023/06/10 08:53:36;;;;;;;10.45;3.80;;;;;;;;;;5091732;28;20418;-61
2023/06/10 08:56:02;;;;;;;8.77;3.67;;;;;;;;;;5104287;28;20038;-62
2023/06/10 08:58:28;;;;;;;8.45;3.13;;;;;;;;;;5090861;28;20024;-62
2023/06/10 09:00:54;;;;;;;5.57;3.17;;;;;;;;;;5093218;28;20020;-63
2023/06/10 09:03:20;;;;;;;11.15;3.67;;;;;;;;;;5091702;28;20063;-62
2023/06/10 09:05:45;;;;;;;9.00;3.50;;;;;;;;;;5089202;28;20496;-63
2023/06/10 09:08:10;;;;;;;11.90;4.18;;;;;;;;;;5092704;28;20028;-62
2023/06/10 09:10:36;;;;;;;8.40;3.22;;;;;;;;;;5091926;28;20024;-62
2023/06/10 09:13:01;;;;;;;6.40;3.08;;;;;;;;;;5089836;28;20024;-63
2023/06/10 09:15:26;;;;;;;6.57;3.47;;;;;;;;;;5084202;28;20117;-62
2023/06/10 09:17:52;;;;;;;6.28;3.63;;;;;;;;;;5086572;28;20016;-63
2023/06/10 09:20:18;;;;;;;7.32;3.53;;;;;;;;;;5089277;28;20534;-63
2023/06/10 09:22:43;;;;;;;6.22;3.10;;;;;;;;;;5089402;28;20103;-65
2023/06/10 09:25:10;;;;;;;7.43;3.30;;;;;;;;;;5091932;28;20099;-63
2023/06/10 09:27:50;;;;;;;6.68;3.60;;;;;;;;;;5088791;28;20020;-62
2023/06/10 09:30:34;;;;;;;7.65;3.35;;;;;;;;;;5085597;28;20059;-63
2023/06/10 09:33:00;;;;;;;8.38;3.88;;;;;;;;;;5088851;28;20024;-64
2023/06/10 09:35:26;;;;;;;6.13;3.10;;;;;;;;;;5093102;28;20420;-63
2023/06/10 09:38:02;;;;;;;10.07;3.65;;;;;;;;;;5087017;28;20020;-63
2023/06/10 09:40:30;;;;;;;7.95;3.35;;;;;;;;;;5090389;28;20028;-64
2023/06/10 09:42:59;;;;;;;5.75;2.72;;;;;;;;;;5106810;28;20431;-63
2023/06/10 09:45:29;;;;;;;5.75;3.40;;;;;;;;;;5093371;28;20054;-63
2023/06/10 09:47:55;;;;;;;6.05;3.00;;;;;;;;;;5091033;28;20032;-66
2023/06/10 09:50:20;;;;;;;8.13;3.75;;;;;;;;;;5091526;28;20024;-64
2023/06/10 09:52:47;;;;;;;7.10;2.92;;;;;;;;;;5092303;28;20016;-65
2023/06/10 09:55:13;;;;;;;6.45;3.03;;;;;;;;;;5092110;28;20027;-64
2023/06/10 09:57:41;;;;;;;9.25;3.15;;;;;;;;;;5092328;28;20016;-64
2023/06/10 10:00:07;;;;;;;6.03;3.00;;;;;;;;;;5093962;28;20028;-66
2023/06/10 10:02:32;;;;;;;7.57;3.20;;;;;;;;;;5091323;28;20041;-66
2023/06/10 10:05:04;;;;;;;6.28;3.22;;;;;;;;;;5090041;28;20043;-65
2023/06/10 10:07:30;;;;;;;8.48;2.95;;;;;;;;;;5092051;28;20032;-65
2023/06/10 10:09:55;;;;;;;7.57;2.90;;;;;;;;;;5091448;28;20457;-66
2023/06/10 10:12:21;;;;;;;6.18;2.70;;;;;;;;;;5091433;28;20024;-65
2023/06/10 10:14:47;;;;;;;6.93;3.13;;;;;;;;;;5093009;28;20031;-65
2023/06/10 10:17:14;;;;;;;8.50;3.03;;;;;;;;;;5092552;28;20094;-65
2023/06/10 10:20:03;;;;;;;5.47;2.88;;;;;;;;;;5088894;28;20077;-66
2023/06/10 10:22:47;;;;;;;7.25;2.78;;;;;;;;;;5085247;28;20104;-67
2023/06/10 10:25:36;;;;;;;7.13;3.08;;;;;;;;;;5088884;28;20054;-66
2023/06/10 10:28:11;;;;;;;5.78;3.00;;;;;;;;;;5079575;28;20035;-65
2023/06/10 10:30:44;;;;;;;5.05;2.75;;;;;;;;;;5095136;28;20166;-67
2023/06/10 10:33:12;;;;;;;8.13;2.33;;;;;;;;;;5095167;28;20024;-67
2023/06/10 10:35:38;;;;;;;6.30;2.72;;;;;;;;;;5093871;28;20023;-67
2023/06/10 10:38:04;;;;;;;6.32;2.60;;;;;;;;;;5095099;28;20385;-67
2023/06/10 10:40:32;;;;;;;7.82;2.90;;;;;;;;;;5094844;28;20024;-64
2023/06/10 10:42:58;;;;;;;9.73;3.05;;;;;;;;;;5094895;28;20472;-65
2023/06/10 10:45:23;;;;;;;8.05;2.70;;;;;;;;;;5097803;28;20019;-65
2023/06/10 10:47:52;;;;;;;5.20;2.50;;;;;;;;;;5097252;28;20024;-66
2023/06/10 10:50:18;;;;;;;7.32;2.50;;;;;;;;;;5095251;28;20378;-66
2023/06/10 10:52:56;;;;;;;6.80;2.83;;;;;;;;;;5094962;28;20035;-66
2023/06/10 10:55:22;;;;;;;5.93;2.60;;;;;;;;;;5095137;28;20378;-67
2023/06/10 10:58:03;;;;;;;6.90;2.40;;;;;;;;;;5094691;28;20032;-67
2023/06/10 11:00:29;;;;;;;7.32;2.20;;;;;;;;;;5095240;28;20036;-67
2023/06/10 11:02:58;;;;;;;5.97;2.47;;;;;;;;;;5094352;28;20495;-67
2023/06/10 11:05:31;;;;;;;6.97;2.42;;;;;;;;;;5094330;28;20031;-67
2023/06/10 11:07:56;;;;;;;5.72;2.65;;;;;;;;;;5095025;28;20027;-65
2023/06/10 11:10:34;;;;;;;4.95;2.35;;;;;;;;;;5094861;28;20392;-67
2023/06/10 11:13:00;;;;;;;5.32;2.50;;;;;;;;;;5092874;28;20031;-67
2023/06/10 11:15:27;;;;;;;5.55;2.33;;;;;;;;;;5095579;28;20285;-67
2023/06/10 11:18:11;;;;;;;5.00;2.20;;;;;;;;;;5094539;28;20023;-67
2023/06/10 11:21:03;;;;;;;4.70;2.38;;;;;;;;;;5093718;28;20115;-67
2023/06/10 11:23:28;;;;;;;5.10;2.28;;;;;;;;;;5088363;28;20032;-67
2023/06/10 11:26:12;;;;;;;5.85;2.38;;;;;;;;;;5093337;28;20339;-68
2023/06/10 11:28:40;;;;;;;5.50;2.28;;;;;;;;;;5095102;28;20020;-68
2023/06/10 11:31:05;;;;;;;8.68;2.53;;;;;;;;;;5097359;28;20376;-67
2023/06/10 11:33:31;;;;;;;4.70;2.28;;;;;;;;;;5095648;28;20015;-67
2023/06/10 11:35:56;;;;;;;6.85;2.30;;;;;;;;;;5093395;28;20104;-68
2023/06/10 11:38:21;;;;;;;4.97;2.15;;;;;;;;;;5096961;28;20119;-68
2023/06/10 11:40:50;;;;;;;5.55;2.50;;;;;;;;;;5091701;28;20054;-68
2023/06/10 11:43:19;;;;;;;5.75;2.20;;;;;;;;;;5101500;28;20439;-69
2023/06/10 11:45:44;;;;;;;5.43;1.77;;;;;;;;;;5093362;28;20024;-68
2023/06/10 11:48:10;;;;;;;4.65;2.10;;;;;;;;;;5093862;28;20121;-68
2023/06/10 11:50:36;;;;;;;4.88;2.00;;;;;;;;;;5097453;28;20507;-69
2023/06/10 11:53:01;;;;;;;11.05;2.05;;;;;;;;;;5092912;28;20019;-68
2023/06/10 11:55:43;;;;;;;6.93;2.20;;;;;;;;;;5093132;28;20107;-69
2023/06/10 11:58:19;;;;;;;5.82;1.98;;;;;;;;;;5073970;28;20055;-68
2023/06/10 12:00:45;;;;;;;3.80;2.08;;;;;;;;;;5086476;28;20042;-68
2023/06/10 12:03:10;;;;;;;5.72;2.50;;;;;;;;;;5092644;28;20548;-68
2023/06/10 12:05:37;;;;;;;5.38;1.95;;;;;;;;;;5093877;28;20496;-67
2023/06/10 12:08:12;;;;;;;5.80;2.20;;;;;;;;;;5095945;28;20024;-68
2023/06/10 12:10:41;;;;;;;5.63;2.10;;;;;;;;;;5074715;28;20419;-67
2023/06/10 12:13:07;;;;;;;4.47;1.80;;;;;;;;;;5087583;28;20493;-68
2023/06/10 12:15:33;;;;;;;3.60;2.10;;;;;;;;;;5092895;28;20054;-68
2023/06/10 12:17:58;;;;;;;4.50;2.20;;;;;;;;;;5091631;28;20099;-67
2023/06/10 12:20:32;;;;;;;4.35;2.05;;;;;;;;;;5092117;28;20030;-68
2023/06/10 12:22:58;;;;;;;4.97;2.30;;;;;;;;;;5090023;28;20040;-69
2023/06/10 12:25:26;;;;;;;4.72;2.05;;;;;;;;;;5091430;28;20038;-68
2023/06/10 12:27:55;;;;;;;4.47;2.05;;;;;;;;;;5090826;28;20518;-68
2023/06/10 12:30:22;;;;;;;6.10;2.17;;;;;;;;;;5092088;28;20020;-67
2023/06/10 12:32:47;;;;;;;35.50;18.50;;;;;;;;;;5092557;28;20077;-67
2023/06/10 12:35:14;;;;;;;4.97;2.13;;;;;;;;;;5096834;28;20085;-67
2023/06/10 12:37:40;;;;;;;4.68;2.15;;;;;;;;;;5092575;28;20028;-69
2023/06/10 12:40:06;;;;;;;4.95;2.47;;;;;;;;;;5093427;28;20043;-69
2023/06/10 12:42:34;;;;;;;5.88;2.10;;;;;;;;;;5092217;28;20023;-68
2023/06/10 12:45:01;;;;;;;4.60;1.95;;;;;;;;;;5092768;28;20016;-69
2023/06/10 12:47:37;;;;;;;7.65;3.13;;;;;;;;;;5094548;28;20036;-69
2023/06/10 12:50:04;;;;;;;5.32;2.22;;;;;;;;;;5092721;28;20012;-70
2023/06/10 12:52:29;;;;;;;4.85;2.00;;;;;;;;;;5092775;28;20024;-71
2023/06/10 12:54:54;;;;;;;5.95;2.08;;;;;;;;;;5092353;28;20032;-70
2023/06/10 12:57:20;;;;;;;4.65;2.00;;;;;;;;;;5096689;28;20359;-70
2023/06/10 12:59:50;;;;;;;5.10;2.08;;;;;;;;;;5090427;28;20032;-68
2023/06/10 13:02:16;;;;;;;4.13;1.97;;;;;;;;;;5091851;28;20047;-68
2023/06/10 13:04:43;;;;;;;5.05;2.10;;;;;;;;;;5091994;28;20266;-69
2023/06/10 13:07:10;;;;;;;4.25;1.95;;;;;;;;;;5091098;28;20016;-68
2023/06/10 13:09:35;;;;;;;4.57;2.13;;;;;;;;;;5095050;28;20050;-68
2023/06/10 13:12:00;;;;;;;5.20;2.22;;;;;;;;;;5092507;28;20016;-68
2023/06/10 13:14:26;;;;;;;12.52;2.33;;;;;;;;;;5095533;28;20114;-69
2023/06/10 13:16:51;;;;;;;10.65;2.80;;;;;;;;;;5092837;28;20036;-70
2023/06/10 13:19:17;;;;;;;5.18;1.98;;;;;;;;;;5092393;28;20051;-69
2023/06/10 13:21:42;;;;;;;3.58;1.90;;;;;;;;;;5091564;28;20141;-68
2023/06/10 13:24:07;;;;;;;3.88;1.88;;;;;;;;;;5092429;28;20113;-69
2023/06/10 13:26:33;;;;;;;6.13;2.17;;;;;;;;;;5094791;28;20016;-71
2023/06/10 13:28:58;;;;;;;5.38;2.00;;;;;;;;;;5095997;28;20099;-70
2023/06/10 13:31:23;;;;;;;5.07;2.20;;;;;;;;;;5088390;28;20077;-69
2023/06/10 13:33:49;;;;;;;5.47;2.35;;;;;;;;;;5091214;28;20098;-71
2023/06/10 13:36:14;;;;;;;5.25;1.95;;;;;;;;;;5089722;28;20024;-70
2023/06/10 13:38:39;;;;;;;5.13;2.15;;;;;;;;;;5092702;28;20417;-72
2023/06/10 13:41:05;;;;;;;7.70;2.10;;;;;;;;;;5092300;28;20027;-72
2023/06/10 13:43:30;;;;;;;5.28;2.08;;;;;;;;;;5093214;28;20060;-69
2023/06/10 13:45:56;;;;;;;4.68;2.28;;;;;;;;;;5076014;28;20020;-72
2023/06/10 13:48:21;;;;;;;4.95;2.10;;;;;;;;;;5092137;28;20043;-69
2023/06/10 13:50:46;;;;;;;5.13;2.13;;;;;;;;;;5092235;28;20016;-71
2023/06/10 13:53:12;;;;;;;4.07;1.88;;;;;;;;;;5094247;28;20020;-72
2023/06/10 13:55:37;;;;;;;5.55;2.28;;;;;;;;;;5091156;28;20071;-71
2023/06/10 13:58:02;;;;;;;5.25;2.10;;;;;;;;;;5090793;28;20493;-69
2023/06/10 14:00:28;;;;;;;11.00;2.42;;;;;;;;;;5089626;28;20043;-72
2023/06/10 14:02:53;;;;;;;5.00;2.50;;;;;;;;;;5092317;28;20451;-73
2023/06/10 14:05:18;;;;;;;4.28;2.17;;;;;;;;;;5098231;28;20020;-73
2023/06/10 14:07:44;;;;;;;6.10;2.45;;;;;;;;;;5099254;28;20083;-72
2023/06/10 14:10:10;;;;;;;5.15;2.10;;;;;;;;;;5098970;28;20020;-70
2023/06/10 14:12:35;;;;;;;6.45;2.40;;;;;;;;;;5094689;28;20070;-72
2023/06/10 14:15:01;;;;;;;5.63;2.17;;;;;;;;;;5098028;28;20024;-71
2023/06/10 14:17:26;;;;;;;7.78;2.33;;;;;;;;;;5094975;28;20150;-72
2023/06/10 14:19:51;;;;;;;4.25;2.20;;;;;;;;;;5096519;28;20028;-74
2023/06/10 14:22:16;;;;;;;4.32;2.15;;;;;;;;;;5094587;28;20055;-72
2023/06/10 14:24:42;;;;;;;4.68;2.13;;;;;;;;;;5099461;28;20473;-73
2023/06/10 14:27:07;;;;;;;5.85;2.40;;;;;;;;;;5096461;28;20012;-73
2023/06/10 14:29:33;;;;;;;6.13;2.28;;;;;;;;;;5098432;28;20018;-71
2023/06/10 14:31:58;;;;;;;5.38;2.55;;;;;;;;;;5095410;28;20385;-72
2023/06/10 14:34:28;;;;;;;3.60;2.08;;;;;;;;;;5094156;28;20028;-70
2023/06/10 14:36:53;;;;;;;5.43;2.15;;;;;;;;;;5099037;28;20050;-71
2023/06/10 14:39:18;;;;;;;5.03;2.20;;;;;;;;;;5098161;28;20477;-74